Tuesday, January 17, 2017, 8:33 PM EST

KMDT, Harrisburg International Airport

Location: Middletown, PA, United States Lat: 40.2
Local Time: 8:33 PM EST ( 1:33 GMT) Lon: -76.767
Time Zone: US/Eastern Elev: 308 ft

Show me the last for .
Show Decoded

2017-01-17 19:56 METAR KMDT 180056Z 00000KT 2SM BR OVC005 04/04 A2996 RMK AO2 SLP148 T00440044 =
2017-01-17 18:56 METAR KMDT 172356Z 13003KT 2 1/2SM BR OVC005 04/04 A2997 RMK AO2 RAE50 SLP152
                 P0003 60018 T00440044 10050 20033 58005 =
2017-01-17 17:56 METAR KMDT 172256Z 12004KT 2 1/2SM -RA BR OVC006 04/04 A2998 RMK AO2 RAB28
                 SLP157 P0003 T00440044 =
2017-01-17 17:28 METAR KMDT 172228Z 00000KT 2 1/2SM RA BR OVC006 04/04 A2999 RMK AO2 RAB28 P0002
                 T00440044 =
2017-01-17 16:56 METAR KMDT 172156Z 10003KT 4SM BR OVC006 05/05 A2999 RMK AO2 RAE11B32E53 SLP158
                 P0004 T00500050 =
2017-01-17 15:56 METAR KMDT 172056Z 12008KT 2SM RA BR OVC007 04/04 A2999 RMK AO2 RAB07 SLP157
                 P0008 60008 T00440044 56022 =
2017-01-17 15:36 METAR KMDT 172036Z 12004KT 2 1/2SM RA BR OVC007 05/04 A3000 RMK AO2 RAB07 P0002
                 T00500044 =
2017-01-17 14:56 METAR KMDT 171956Z 13008KT 4SM BR OVC008 05/04 A2999 RMK AO2 SLP158 T00500039 =
2017-01-17 13:56 METAR KMDT 171856Z 13004KT 3SM BR OVC008 04/04 A3003 =
2017-01-17 13:20 METAR KMDT 171820Z 13004KT 3SM BR OVC009 04/03 A3004 RMK AO2 T00440033 =
2017-01-17 12:56 METAR KMDT 171756Z 16003KT 2SM BR OVC009 03/03 A3005 =
2017-01-17 12:42 METAR KMDT 171742Z 00000KT 2 1/2SM -RA BR OVC008 04/03 A3006 RMK AO2 RAB15 P0001
                 T00390028 =
2017-01-17 11:56 METAR KMDT 171656Z 10007KT 3SM BR OVC008 04/03 A3009 RMK AO2 RAB41E52 SLP191
                 P0000 T00440028 =
2017-01-17 10:56 METAR KMDT 171556Z 13004KT 3SM BR OVC009 02/01 A3014 RMK AO2 SLP210 T00220011 =
2017-01-17 10:34 METAR KMDT 171534Z 14003KT 4SM BR OVC010 03/01 A3016 RMK AO2 T00280011 =
2017-01-17 09:56 METAR KMDT 171456Z 00000KT 5SM BR OVC009 03/01 A3018 RMK AO2 RAB04E25 SLP221
                 P0000 60000 T00280006 58002 =
2017-01-17 09:54 METAR KMDT 171454Z 00000KT 5SM BR OVC009 03/01 A3018 RMK AO2 RAB04E25 P0000 =
2017-01-17 08:56 METAR KMDT 171356Z 00000KT 5SM HZ OVC011 02/M01 A3020 =
2017-01-17 07:56 METAR KMDT 171256Z 00000KT 6SM HZ OVC013 02/M01 A3018 RMK AO2 SLP223 T00221006 =
2017-01-17 07:29 METAR KMDT 171229Z 00000KT 7SM OVC014 02/M01 A3018 RMK AO2 T00221011 =
2017-01-17 06:56 METAR KMDT 171156Z 00000KT 7SM OVC015 02/M01 A3019 =
2017-01-17 06:27 METAR KMDT 171127Z 00000KT 7SM OVC015 02/M01 A3018 RMK AO2 T00171011 =
2017-01-17 05:56 METAR KMDT 171056Z 00000KT 7SM OVC014 02/M01 A3020 RMK AO2 SLP228 T00171011 =
2017-01-17 04:56 METAR KMDT 170956Z 00000KT 9SM OVC016 02/M01 A3021 RMK AO2 SLP232 T00221011 =
2017-01-17 03:56 METAR KMDT 170856Z 00000KT 9SM BKN017 OVC050 02/M01 A3022 RMK AO2 SLP238
                 T00171011 58012 =
2017-01-17 03:22 METAR KMDT 170822Z 00000KT 9SM SCT020 OVC033 02/M02 A3023 RMK AO2 T00221017 =
2017-01-17 02:56 METAR KMDT 170756Z 00000KT 10SM OVC021 02/M01 A3025 RMK AO2 SLP245 T00221011 =
2017-01-17 01:56 METAR KMDT 170656Z 00000KT 9SM OVC022 02/M02 A3024 RMK AO2 SLP245 T00221017 =
2017-01-17 00:56 METAR KMDT 170556Z 00000KT 10SM SCT017 OVC024 02/M01 A3026 =
2017-01-16 23:56 METAR KMDT 170456Z 00000KT 10SM OVC017 02/M02 A3028 RMK AO2 SLP257 T00221017
                 400281072 =
2017-01-16 22:56 METAR KMDT 170356Z 12003KT 9SM OVC019 02/M02 A3030 =
2017-01-16 21:56 METAR KMDT 170256Z 00000KT 10SM BKN025 OVC036 02/M02 A3032 RMK AO2 SLP272 60000
                 T00221022 56008 =
2017-01-16 21:17 METAR KMDT 170217Z 00000KT 10SM BKN027 OVC036 02/M02 A3033 RMK AO2 T00221017 =
2017-01-16 20:56 METAR KMDT 170156Z 00000KT 9SM FEW028 SCT039 OVC065 02/M01 A3033 RMK AO2
                 RAB09E28 SLP275 P0000 T00221011 =

Support USWX by starting your Amazon purchase here.